sensor_id;sensor_type;location;lat;lon;timestamp;P1;durP1;ratioP1;P2;durP2;ratioP2
4278;SDS011;2153;47.744;10.580;2022-09-21T00:01:48;13.60;;;4.03;;
4278;SDS011;2153;47.744;10.580;2022-09-21T00:04:15;16.70;;;4.07;;
4278;SDS011;2153;47.744;10.580;2022-09-21T00:06:42;14.20;;;3.47;;
4278;SDS011;2153;47.744;10.580;2022-09-21T00:09:09;15.47;;;3.80;;
4278;SDS011;2153;47.744;10.580;2022-09-21T00:11:36;15.43;;;3.70;;
4278;SDS011;2153;47.744;10.580;2022-09-21T00:14:04;14.50;;;3.90;;
4278;SDS011;2153;47.744;10.580;2022-09-21T00:16:35;14.37;;;3.37;;
4278;SDS011;2153;47.744;10.580;2022-09-21T00:19:03;13.50;;;3.83;;
4278;SDS011;2153;47.744;10.580;2022-09-21T00:21:30;15.73;;;3.87;;
4278;SDS011;2153;47.744;10.580;2022-09-21T00:23:57;15.67;;;3.93;;
4278;SDS011;2153;47.744;10.580;2022-09-21T00:26:25;14.07;;;3.70;;
4278;SDS011;2153;47.744;10.580;2022-09-21T00:28:53;16.70;;;4.33;;
4278;SDS011;2153;47.744;10.580;2022-09-21T00:31:20;15.80;;;4.67;;
4278;SDS011;2153;47.744;10.580;2022-09-21T00:33:49;15.70;;;4.57;;
4278;SDS011;2153;47.744;10.580;2022-09-21T00:36:16;15.03;;;4.70;;
4278;SDS011;2153;47.744;10.580;2022-09-21T00:38:48;15.80;;;4.60;;
4278;SDS011;2153;47.744;10.580;2022-09-21T00:41:15;24.10;;;5.37;;
4278;SDS011;2153;47.744;10.580;2022-09-21T00:43:44;16.90;;;4.90;;
4278;SDS011;2153;47.744;10.580;2022-09-21T00:46:13;13.23;;;3.73;;
4278;SDS011;2153;47.744;10.580;2022-09-21T00:48:46;13.10;;;3.73;;
4278;SDS011;2153;47.744;10.580;2022-09-21T00:51:15;14.27;;;3.73;;
4278;SDS011;2153;47.744;10.580;2022-09-21T00:53:42;15.80;;;4.10;;
4278;SDS011;2153;47.744;10.580;2022-09-21T00:56:09;13.50;;;3.83;;
4278;SDS011;2153;47.744;10.580;2022-09-21T00:58:39;13.43;;;3.50;;
4278;SDS011;2153;47.744;10.580;2022-09-21T01:01:11;16.40;;;4.10;;
4278;SDS011;2153;47.744;10.580;2022-09-21T01:03:40;13.97;;;3.93;;
4278;SDS011;2153;47.744;10.580;2022-09-21T01:06:10;16.20;;;4.50;;
4278;SDS011;2153;47.744;10.580;2022-09-21T01:08:37;14.20;;;4.47;;
4278;SDS011;2153;47.744;10.580;2022-09-21T01:14:00;15.90;;;3.67;;
4278;SDS011;2153;47.744;10.580;2022-09-21T01:16:42;13.80;;;3.60;;
4278;SDS011;2153;47.744;10.580;2022-09-21T01:19:21;14.20;;;3.60;;
4278;SDS011;2153;47.744;10.580;2022-09-21T01:21:58;23.97;;;4.03;;
4278;SDS011;2153;47.744;10.580;2022-09-21T01:24:38;12.40;;;3.20;;
4278;SDS011;2153;47.744;10.580;2022-09-21T01:30:13;15.50;;;3.80;;
4278;SDS011;2153;47.744;10.580;2022-09-21T01:32:43;13.97;;;3.77;;
4278;SDS011;2153;47.744;10.580;2022-09-21T01:35:16;15.20;;;3.40;;
4278;SDS011;2153;47.744;10.580;2022-09-21T01:37:47;15.90;;;3.50;;
4278;SDS011;2153;47.744;10.580;2022-09-21T01:40:18;12.80;;;3.33;;
4278;SDS011;2153;47.744;10.580;2022-09-21T01:42:47;13.33;;;3.87;;
4278;SDS011;2153;47.744;10.580;2022-09-21T01:45:17;16.70;;;4.10;;
4278;SDS011;2153;47.744;10.580;2022-09-21T01:47:48;17.73;;;5.00;;
4278;SDS011;2153;47.744;10.580;2022-09-21T01:50:17;16.20;;;4.63;;
4278;SDS011;2153;47.744;10.580;2022-09-21T01:52:46;16.77;;;4.47;;
4278;SDS011;2153;47.744;10.580;2022-09-21T01:55:17;18.57;;;3.97;;
4278;SDS011;2153;47.744;10.580;2022-09-21T02:01:16;14.00;;;3.80;;
4278;SDS011;2153;47.744;10.580;2022-09-21T02:03:48;16.10;;;4.23;;
4278;SDS011;2153;47.744;10.580;2022-09-21T02:06:18;15.90;;;4.23;;
4278;SDS011;2153;47.744;10.580;2022-09-21T02:08:45;15.27;;;4.07;;
4278;SDS011;2153;47.744;10.580;2022-09-21T02:11:12;12.60;;;3.33;;
4278;SDS011;2153;47.744;10.580;2022-09-21T02:13:40;15.83;;;4.00;;
4278;SDS011;2153;47.744;10.580;2022-09-21T02:16:19;16.80;;;3.83;;
4278;SDS011;2153;47.744;10.580;2022-09-21T02:19:09;14.83;;;3.40;;
4278;SDS011;2153;47.744;10.580;2022-09-21T02:21:43;18.80;;;3.33;;
4278;SDS011;2153;47.744;10.580;2022-09-21T02:24:19;14.03;;;3.43;;
4278;SDS011;2153;47.744;10.580;2022-09-21T02:26:58;13.37;;;3.63;;
4278;SDS011;2153;47.744;10.580;2022-09-21T02:29:32;13.43;;;3.60;;
4278;SDS011;2153;47.744;10.580;2022-09-21T02:32:10;14.07;;;3.50;;
4278;SDS011;2153;47.744;10.580;2022-09-21T02:34:43;12.77;;;3.50;;
4278;SDS011;2153;47.744;10.580;2022-09-21T02:37:16;13.70;;;3.73;;
4278;SDS011;2153;47.744;10.580;2022-09-21T02:39:49;15.17;;;3.40;;
4278;SDS011;2153;47.744;10.580;2022-09-21T02:42:23;21.53;;;3.77;;
4278;SDS011;2153;47.744;10.580;2022-09-21T02:44:54;14.30;;;3.53;;
4278;SDS011;2153;47.744;10.580;2022-09-21T02:47:27;15.80;;;3.70;;
4278;SDS011;2153;47.744;10.580;2022-09-21T02:50:00;13.77;;;3.30;;
4278;SDS011;2153;47.744;10.580;2022-09-21T02:52:30;13.23;;;3.17;;
4278;SDS011;2153;47.744;10.580;2022-09-21T02:54:59;16.53;;;3.87;;
4278;SDS011;2153;47.744;10.580;2022-09-21T02:57:28;14.03;;;3.97;;
4278;SDS011;2153;47.744;10.580;2022-09-21T02:59:55;18.83;;;6.33;;
4278;SDS011;2153;47.744;10.580;2022-09-21T03:02:22;13.77;;;3.60;;
4278;SDS011;2153;47.744;10.580;2022-09-21T03:04:50;13.50;;;3.40;;
4278;SDS011;2153;47.744;10.580;2022-09-21T03:07:18;13.23;;;3.13;;
4278;SDS011;2153;47.744;10.580;2022-09-21T03:09:44;19.87;;;4.07;;
4278;SDS011;2153;47.744;10.580;2022-09-21T03:12:11;17.60;;;4.63;;
4278;SDS011;2153;47.744;10.580;2022-09-21T03:14:38;16.00;;;4.47;;
4278;SDS011;2153;47.744;10.580;2022-09-21T03:17:04;14.53;;;4.10;;
4278;SDS011;2153;47.744;10.580;2022-09-21T03:19:31;12.63;;;3.47;;
4278;SDS011;2153;47.744;10.580;2022-09-21T03:21:59;13.30;;;3.43;;
4278;SDS011;2153;47.744;10.580;2022-09-21T03:24:26;13.40;;;4.20;;
4278;SDS011;2153;47.744;10.580;2022-09-21T03:27:11;12.70;;;3.30;;
4278;SDS011;2153;47.744;10.580;2022-09-21T03:29:38;14.40;;;3.87;;
4278;SDS011;2153;47.744;10.580;2022-09-21T03:32:05;17.43;;;3.80;;
4278;SDS011;2153;47.744;10.580;2022-09-21T03:34:32;18.17;;;3.83;;
4278;SDS011;2153;47.744;10.580;2022-09-21T03:37:00;15.10;;;4.43;;
4278;SDS011;2153;47.744;10.580;2022-09-21T03:39:27;15.60;;;4.10;;
4278;SDS011;2153;47.744;10.580;2022-09-21T03:41:54;13.40;;;4.00;;
4278;SDS011;2153;47.744;10.580;2022-09-21T03:44:21;19.43;;;3.87;;
4278;SDS011;2153;47.744;10.580;2022-09-21T03:46:47;13.60;;;4.03;;
4278;SDS011;2153;47.744;10.580;2022-09-21T03:49:15;17.30;;;3.83;;
4278;SDS011;2153;47.744;10.580;2022-09-21T03:51:42;14.10;;;4.10;;
4278;SDS011;2153;47.744;10.580;2022-09-21T03:54:10;16.83;;;4.23;;
4278;SDS011;2153;47.744;10.580;2022-09-21T03:56:37;13.57;;;3.97;;
4278;SDS011;2153;47.744;10.580;2022-09-21T03:59:03;15.50;;;3.77;;
4278;SDS011;2153;47.744;10.580;2022-09-21T04:01:30;13.70;;;3.90;;
4278;SDS011;2153;47.744;10.580;2022-09-21T04:03:57;13.13;;;4.10;;
4278;SDS011;2153;47.744;10.580;2022-09-21T04:06:23;15.63;;;4.00;;
4278;SDS011;2153;47.744;10.580;2022-09-21T04:08:50;16.77;;;3.70;;
4278;SDS011;2153;47.744;10.580;2022-09-21T04:11:20;13.30;;;3.23;;
4278;SDS011;2153;47.744;10.580;2022-09-21T04:13:48;13.10;;;3.83;;
4278;SDS011;2153;47.744;10.580;2022-09-21T04:16:17;13.70;;;4.07;;
4278;SDS011;2153;47.744;10.580;2022-09-21T04:18:43;12.70;;;3.10;;
4278;SDS011;2153;47.744;10.580;2022-09-21T04:21:14;12.80;;;3.40;;
4278;SDS011;2153;47.744;10.580;2022-09-21T04:23:41;12.67;;;3.43;;
4278;SDS011;2153;47.744;10.580;2022-09-21T04:26:15;15.13;;;4.43;;
4278;SDS011;2153;47.744;10.580;2022-09-21T04:28:48;14.20;;;3.90;;
4278;SDS011;2153;47.744;10.580;2022-09-21T04:31:15;13.27;;;3.83;;
4278;SDS011;2153;47.744;10.580;2022-09-21T04:33:41;16.90;;;3.23;;
4278;SDS011;2153;47.744;10.580;2022-09-21T04:36:08;14.10;;;3.30;;
4278;SDS011;2153;47.744;10.580;2022-09-21T04:38:35;12.50;;;3.10;;
4278;SDS011;2153;47.744;10.580;2022-09-21T04:41:02;12.37;;;3.23;;
4278;SDS011;2153;47.744;10.580;2022-09-21T04:43:30;12.67;;;3.63;;
4278;SDS011;2153;47.744;10.580;2022-09-21T04:45:57;12.60;;;3.33;;
4278;SDS011;2153;47.744;10.580;2022-09-21T04:48:23;15.20;;;3.57;;
4278;SDS011;2153;47.744;10.580;2022-09-21T04:50:50;12.93;;;3.20;;
4278;SDS011;2153;47.744;10.580;2022-09-21T04:53:17;13.47;;;3.27;;
4278;SDS011;2153;47.744;10.580;2022-09-21T04:55:43;12.83;;;3.70;;
4278;SDS011;2153;47.744;10.580;2022-09-21T04:58:10;15.87;;;3.93;;
4278;SDS011;2153;47.744;10.580;2022-09-21T05:00:38;17.30;;;4.10;;
4278;SDS011;2153;47.744;10.580;2022-09-21T05:03:05;14.27;;;3.63;;
4278;SDS011;2153;47.744;10.580;2022-09-21T05:05:32;14.00;;;3.67;;
4278;SDS011;2153;47.744;10.580;2022-09-21T05:07:59;13.63;;;3.90;;
4278;SDS011;2153;47.744;10.580;2022-09-21T05:10:26;13.67;;;4.13;;
4278;SDS011;2153;47.744;10.580;2022-09-21T05:12:52;13.73;;;4.37;;
4278;SDS011;2153;47.744;10.580;2022-09-21T05:15:19;18.03;;;3.90;;
4278;SDS011;2153;47.744;10.580;2022-09-21T05:17:47;16.17;;;4.60;;
4278;SDS011;2153;47.744;10.580;2022-09-21T05:20:14;13.17;;;4.00;;
4278;SDS011;2153;47.744;10.580;2022-09-21T05:22:41;14.03;;;4.00;;
4278;SDS011;2153;47.744;10.580;2022-09-21T05:25:08;14.20;;;4.00;;
4278;SDS011;2153;47.744;10.580;2022-09-21T05:27:35;17.03;;;6.57;;
4278;SDS011;2153;47.744;10.580;2022-09-21T05:30:02;19.03;;;5.37;;
4278;SDS011;2153;47.744;10.580;2022-09-21T05:32:32;17.87;;;4.80;;
4278;SDS011;2153;47.744;10.580;2022-09-21T05:35:12;14.43;;;4.43;;
4278;SDS011;2153;47.744;10.580;2022-09-21T05:37:51;19.17;;;4.30;;
4278;SDS011;2153;47.744;10.580;2022-09-21T05:40:22;14.23;;;4.53;;
4278;SDS011;2153;47.744;10.580;2022-09-21T05:42:49;17.40;;;4.77;;
4278;SDS011;2153;47.744;10.580;2022-09-21T05:45:17;15.77;;;4.60;;
4278;SDS011;2153;47.744;10.580;2022-09-21T05:47:47;18.73;;;4.73;;
4278;SDS011;2153;47.744;10.580;2022-09-21T05:50:28;14.60;;;4.60;;
4278;SDS011;2153;47.744;10.580;2022-09-21T05:53:24;14.90;;;4.60;;
4278;SDS011;2153;47.744;10.580;2022-09-21T05:56:06;18.30;;;4.10;;
4278;SDS011;2153;47.744;10.580;2022-09-21T05:58:42;16.37;;;5.23;;
4278;SDS011;2153;47.744;10.580;2022-09-21T06:01:19;15.30;;;4.40;;
4278;SDS011;2153;47.744;10.580;2022-09-21T06:03:59;16.90;;;4.17;;
4278;SDS011;2153;47.744;10.580;2022-09-21T06:06:29;13.43;;;3.60;;
4278;SDS011;2153;47.744;10.580;2022-09-21T06:08:56;13.47;;;4.00;;
4278;SDS011;2153;47.744;10.580;2022-09-21T06:11:22;14.67;;;3.73;;
4278;SDS011;2153;47.744;10.580;2022-09-21T06:13:49;13.30;;;3.30;;
4278;SDS011;2153;47.744;10.580;2022-09-21T06:16:16;15.83;;;3.67;;
4278;SDS011;2153;47.744;10.580;2022-09-21T06:18:42;12.93;;;3.00;;
4278;SDS011;2153;47.744;10.580;2022-09-21T06:21:09;13.17;;;3.50;;
4278;SDS011;2153;47.744;10.580;2022-09-21T06:23:37;13.10;;;3.40;;
4278;SDS011;2153;47.744;10.580;2022-09-21T06:26:04;15.80;;;3.63;;
4278;SDS011;2153;47.744;10.580;2022-09-21T06:28:31;14.10;;;3.43;;
4278;SDS011;2153;47.744;10.580;2022-09-21T06:30:57;14.30;;;3.70;;
4278;SDS011;2153;47.744;10.580;2022-09-21T06:33:24;14.10;;;3.37;;
4278;SDS011;2153;47.744;10.580;2022-09-21T06:35:51;12.67;;;3.10;;
4278;SDS011;2153;47.744;10.580;2022-09-21T06:38:19;13.70;;;2.80;;
4278;SDS011;2153;47.744;10.580;2022-09-21T06:40:47;13.20;;;2.80;;
4278;SDS011;2153;47.744;10.580;2022-09-21T06:43:14;21.23;;;3.53;;
4278;SDS011;2153;47.744;10.580;2022-09-21T06:45:41;15.90;;;3.13;;
4278;SDS011;2153;47.744;10.580;2022-09-21T06:48:08;17.53;;;3.40;;
4278;SDS011;2153;47.744;10.580;2022-09-21T06:50:35;13.83;;;3.17;;
4278;SDS011;2153;47.744;10.580;2022-09-21T06:53:02;15.70;;;3.40;;
4278;SDS011;2153;47.744;10.580;2022-09-21T06:55:29;13.50;;;3.40;;
4278;SDS011;2153;47.744;10.580;2022-09-21T06:58:01;13.57;;;3.03;;
4278;SDS011;2153;47.744;10.580;2022-09-21T07:00:29;18.40;;;3.87;;
4278;SDS011;2153;47.744;10.580;2022-09-21T07:02:57;18.33;;;3.27;;
4278;SDS011;2153;47.744;10.580;2022-09-21T07:05:24;13.77;;;3.60;;
4278;SDS011;2153;47.744;10.580;2022-09-21T07:07:55;13.90;;;2.97;;
4278;SDS011;2153;47.744;10.580;2022-09-21T07:10:22;15.60;;;3.23;;
4278;SDS011;2153;47.744;10.580;2022-09-21T07:12:49;13.13;;;3.30;;
4278;SDS011;2153;47.744;10.580;2022-09-21T07:15:17;14.67;;;3.70;;
4278;SDS011;2153;47.744;10.580;2022-09-21T07:17:45;15.23;;;3.10;;
4278;SDS011;2153;47.744;10.580;2022-09-21T07:20:12;14.93;;;3.30;;
4278;SDS011;2153;47.744;10.580;2022-09-21T07:22:39;13.97;;;2.93;;
4278;SDS011;2153;47.744;10.580;2022-09-21T07:25:06;16.30;;;3.60;;
4278;SDS011;2153;47.744;10.580;2022-09-21T07:27:34;21.23;;;3.50;;
4278;SDS011;2153;47.744;10.580;2022-09-21T07:30:00;22.10;;;3.40;;
4278;SDS011;2153;47.744;10.580;2022-09-21T07:32:29;22.50;;;3.57;;
4278;SDS011;2153;47.744;10.580;2022-09-21T07:34:56;16.60;;;3.23;;
4278;SDS011;2153;47.744;10.580;2022-09-21T07:37:23;15.23;;;3.70;;
4278;SDS011;2153;47.744;10.580;2022-09-21T07:39:50;15.93;;;2.77;;
4278;SDS011;2153;47.744;10.580;2022-09-21T07:42:17;14.27;;;3.20;;
4278;SDS011;2153;47.744;10.580;2022-09-21T07:44:45;16.67;;;2.73;;
4278;SDS011;2153;47.744;10.580;2022-09-21T07:47:12;13.80;;;2.83;;
4278;SDS011;2153;47.744;10.580;2022-09-21T07:49:41;14.30;;;2.93;;
4278;SDS011;2153;47.744;10.580;2022-09-21T07:52:07;16.40;;;3.60;;
4278;SDS011;2153;47.744;10.580;2022-09-21T07:54:34;14.43;;;2.90;;
4278;SDS011;2153;47.744;10.580;2022-09-21T07:57:01;14.77;;;2.60;;
4278;SDS011;2153;47.744;10.580;2022-09-21T07:59:45;14.30;;;2.90;;
4278;SDS011;2153;47.744;10.580;2022-09-21T08:02:12;15.20;;;2.67;;
4278;SDS011;2153;47.744;10.580;2022-09-21T08:04:40;19.27;;;3.03;;
4278;SDS011;2153;47.744;10.580;2022-09-21T08:07:07;23.13;;;3.30;;
4278;SDS011;2153;47.744;10.580;2022-09-21T08:09:33;21.07;;;3.07;;
4278;SDS011;2153;47.744;10.580;2022-09-21T08:12:00;20.07;;;3.30;;
4278;SDS011;2153;47.744;10.580;2022-09-21T08:14:27;20.33;;;3.57;;
4278;SDS011;2153;47.744;10.580;2022-09-21T08:16:54;14.00;;;2.90;;
4278;SDS011;2153;47.744;10.580;2022-09-21T08:19:20;14.30;;;2.80;;
4278;SDS011;2153;47.744;10.580;2022-09-21T08:21:51;14.53;;;2.70;;
4278;SDS011;2153;47.744;10.580;2022-09-21T08:24:17;17.07;;;3.40;;
4278;SDS011;2153;47.744;10.580;2022-09-21T08:26:44;14.23;;;2.37;;
4278;SDS011;2153;47.744;10.580;2022-09-21T08:29:12;13.57;;;2.30;;
4278;SDS011;2153;47.744;10.580;2022-09-21T08:31:39;17.90;;;2.40;;
4278;SDS011;2153;47.744;10.580;2022-09-21T08:34:07;22.33;;;3.00;;
4278;SDS011;2153;47.744;10.580;2022-09-21T08:36:34;18.07;;;2.90;;
4278;SDS011;2153;47.744;10.580;2022-09-21T08:39:03;15.17;;;2.73;;
4278;SDS011;2153;47.744;10.580;2022-09-21T08:41:39;16.33;;;2.67;;
4278;SDS011;2153;47.744;10.580;2022-09-21T08:44:17;15.73;;;3.00;;
4278;SDS011;2153;47.744;10.580;2022-09-21T08:46:47;13.57;;;2.60;;
4278;SDS011;2153;47.744;10.580;2022-09-21T08:49:20;15.67;;;2.60;;
4278;SDS011;2153;47.744;10.580;2022-09-21T08:51:50;15.20;;;2.67;;
4278;SDS011;2153;47.744;10.580;2022-09-21T08:54:25;17.13;;;2.80;;
4278;SDS011;2153;47.744;10.580;2022-09-21T08:56:55;13.13;;;2.17;;
4278;SDS011;2153;47.744;10.580;2022-09-21T08:59:22;16.10;;;2.53;;
4278;SDS011;2153;47.744;10.580;2022-09-21T09:01:52;13.07;;;1.83;;
4278;SDS011;2153;47.744;10.580;2022-09-21T09:04:29;18.60;;;2.97;;
4278;SDS011;2153;47.744;10.580;2022-09-21T09:07:08;19.90;;;2.70;;
4278;SDS011;2153;47.744;10.580;2022-09-21T09:09:54;14.63;;;2.00;;
4278;SDS011;2153;47.744;10.580;2022-09-21T09:12:31;13.43;;;2.03;;
4278;SDS011;2153;47.744;10.580;2022-09-21T09:15:15;15.40;;;1.50;;
4278;SDS011;2153;47.744;10.580;2022-09-21T09:18:04;13.10;;;1.70;;
4278;SDS011;2153;47.744;10.580;2022-09-21T09:20:35;14.10;;;1.63;;
4278;SDS011;2153;47.744;10.580;2022-09-21T09:23:05;13.77;;;1.53;;
4278;SDS011;2153;47.744;10.580;2022-09-21T09:25:40;15.00;;;1.80;;
4278;SDS011;2153;47.744;10.580;2022-09-21T09:28:16;20.10;;;1.47;;
4278;SDS011;2153;47.744;10.580;2022-09-21T09:30:51;13.20;;;1.20;;
4278;SDS011;2153;47.744;10.580;2022-09-21T09:33:25;13.37;;;1.33;;
4278;SDS011;2153;47.744;10.580;2022-09-21T09:35:57;11.70;;;1.10;;
4278;SDS011;2153;47.744;10.580;2022-09-21T09:38:28;13.87;;;1.70;;
4278;SDS011;2153;47.744;10.580;2022-09-21T09:41:05;12.73;;;2.00;;
4278;SDS011;2153;47.744;10.580;2022-09-21T09:43:47;13.50;;;1.67;;
4278;SDS011;2153;47.744;10.580;2022-09-21T09:46:29;13.40;;;1.50;;
4278;SDS011;2153;47.744;10.580;2022-09-21T09:49:03;12.67;;;1.70;;
4278;SDS011;2153;47.744;10.580;2022-09-21T09:51:39;18.17;;;2.07;;
4278;SDS011;2153;47.744;10.580;2022-09-21T09:54:10;11.83;;;1.30;;
4278;SDS011;2153;47.744;10.580;2022-09-21T09:56:41;11.00;;;1.33;;
4278;SDS011;2153;47.744;10.580;2022-09-21T09:59:09;18.90;;;1.73;;
4278;SDS011;2153;47.744;10.580;2022-09-21T10:01:44;13.60;;;1.50;;
4278;SDS011;2153;47.744;10.580;2022-09-21T10:04:12;12.33;;;1.17;;
4278;SDS011;2153;47.744;10.580;2022-09-21T10:06:39;11.70;;;1.27;;
4278;SDS011;2153;47.744;10.580;2022-09-21T10:09:17;14.70;;;1.40;;
4278;SDS011;2153;47.744;10.580;2022-09-21T10:11:46;11.50;;;1.30;;
4278;SDS011;2153;47.744;10.580;2022-09-21T10:14:15;11.97;;;1.40;;
4278;SDS011;2153;47.744;10.580;2022-09-21T10:16:44;16.20;;;1.60;;
4278;SDS011;2153;47.744;10.580;2022-09-21T10:19:14;12.93;;;1.27;;
4278;SDS011;2153;47.744;10.580;2022-09-21T10:21:45;11.43;;;1.33;;
4278;SDS011;2153;47.744;10.580;2022-09-21T10:24:14;10.97;;;1.20;;
4278;SDS011;2153;47.744;10.580;2022-09-21T10:26:47;13.20;;;1.20;;
4278;SDS011;2153;47.744;10.580;2022-09-21T10:29:21;12.30;;;1.30;;
4278;SDS011;2153;47.744;10.580;2022-09-21T10:31:55;11.20;;;1.30;;
4278;SDS011;2153;47.744;10.580;2022-09-21T10:34:23;11.70;;;1.50;;
4278;SDS011;2153;47.744;10.580;2022-09-21T10:36:51;12.80;;;1.10;;
4278;SDS011;2153;47.744;10.580;2022-09-21T10:39:23;13.60;;;1.27;;
4278;SDS011;2153;47.744;10.580;2022-09-21T10:41:55;12.50;;;1.50;;
4278;SDS011;2153;47.744;10.580;2022-09-21T10:44:25;14.07;;;1.20;;
4278;SDS011;2153;47.744;10.580;2022-09-21T10:46:54;12.37;;;1.57;;
4278;SDS011;2153;47.744;10.580;2022-09-21T10:49:21;11.50;;;1.20;;
4278;SDS011;2153;47.744;10.580;2022-09-21T10:51:50;12.60;;;1.30;;
4278;SDS011;2153;47.744;10.580;2022-09-21T10:54:21;12.60;;;1.30;;
4278;SDS011;2153;47.744;10.580;2022-09-21T10:56:55;12.10;;;1.37;;
4278;SDS011;2153;47.744;10.580;2022-09-21T10:59:26;14.43;;;1.67;;
4278;SDS011;2153;47.744;10.580;2022-09-21T11:01:54;13.43;;;1.30;;
4278;SDS011;2153;47.744;10.580;2022-09-21T11:04:25;11.80;;;1.20;;
4278;SDS011;2153;47.744;10.580;2022-09-21T11:07:01;11.63;;;1.33;;
4278;SDS011;2153;47.744;10.580;2022-09-21T11:09:36;14.80;;;1.00;;
4278;SDS011;2153;47.744;10.580;2022-09-21T11:12:10;13.47;;;1.70;;
4278;SDS011;2153;47.744;10.580;2022-09-21T11:14:50;12.13;;;1.50;;
4278;SDS011;2153;47.744;10.580;2022-09-21T11:17:26;11.60;;;1.20;;
4278;SDS011;2153;47.744;10.580;2022-09-21T11:20:03;11.37;;;1.23;;
4278;SDS011;2153;47.744;10.580;2022-09-21T11:22:39;11.90;;;1.10;;
4278;SDS011;2153;47.744;10.580;2022-09-21T11:25:19;11.67;;;1.40;;
4278;SDS011;2153;47.744;10.580;2022-09-21T11:27:56;12.50;;;1.63;;
4278;SDS011;2153;47.744;10.580;2022-09-21T11:30:29;11.00;;;1.20;;
4278;SDS011;2153;47.744;10.580;2022-09-21T11:33:09;11.90;;;1.07;;
4278;SDS011;2153;47.744;10.580;2022-09-21T11:35:51;11.90;;;1.50;;
4278;SDS011;2153;47.744;10.580;2022-09-21T11:38:31;11.73;;;1.30;;
4278;SDS011;2153;47.744;10.580;2022-09-21T11:41:12;12.40;;;1.73;;
4278;SDS011;2153;47.744;10.580;2022-09-21T11:43:58;19.10;;;1.40;;
4278;SDS011;2153;47.744;10.580;2022-09-21T11:46:37;11.47;;;1.30;;
4278;SDS011;2153;47.744;10.580;2022-09-21T11:49:23;13.23;;;1.40;;
4278;SDS011;2153;47.744;10.580;2022-09-21T11:52:04;12.03;;;1.20;;
4278;SDS011;2153;47.744;10.580;2022-09-21T11:54:49;11.67;;;1.20;;
4278;SDS011;2153;47.744;10.580;2022-09-21T11:57:26;12.37;;;1.30;;
4278;SDS011;2153;47.744;10.580;2022-09-21T12:00:07;11.93;;;1.33;;
4278;SDS011;2153;47.744;10.580;2022-09-21T12:02:51;13.70;;;1.57;;
4278;SDS011;2153;47.744;10.580;2022-09-21T12:05:40;13.97;;;1.30;;
4278;SDS011;2153;47.744;10.580;2022-09-21T12:08:22;13.90;;;1.40;;
4278;SDS011;2153;47.744;10.580;2022-09-21T12:11:05;12.07;;;1.40;;
4278;SDS011;2153;47.744;10.580;2022-09-21T12:13:39;12.37;;;1.40;;
4278;SDS011;2153;47.744;10.580;2022-09-21T12:16:16;12.37;;;1.40;;
4278;SDS011;2153;47.744;10.580;2022-09-21T12:18:49;13.20;;;1.67;;
4278;SDS011;2153;47.744;10.580;2022-09-21T12:21:26;12.40;;;1.27;;
4278;SDS011;2153;47.744;10.580;2022-09-21T12:23:55;12.93;;;1.30;;
4278;SDS011;2153;47.744;10.580;2022-09-21T12:26:23;11.60;;;1.30;;
4278;SDS011;2153;47.744;10.580;2022-09-21T12:28:53;11.83;;;1.27;;
4278;SDS011;2153;47.744;10.580;2022-09-21T12:31:28;12.37;;;1.30;;
4278;SDS011;2153;47.744;10.580;2022-09-21T12:34:00;13.33;;;1.50;;
4278;SDS011;2153;47.744;10.580;2022-09-21T12:36:32;13.20;;;1.40;;
4278;SDS011;2153;47.744;10.580;2022-09-21T12:39:04;15.03;;;1.40;;
4278;SDS011;2153;47.744;10.580;2022-09-21T12:41:37;17.93;;;1.50;;
4278;SDS011;2153;47.744;10.580;2022-09-21T12:44:11;13.07;;;1.47;;
4278;SDS011;2153;47.744;10.580;2022-09-21T12:46:47;12.57;;;1.23;;
4278;SDS011;2153;47.744;10.580;2022-09-21T12:49:21;14.97;;;1.50;;
4278;SDS011;2153;47.744;10.580;2022-09-21T12:51:54;22.10;;;1.87;;
4278;SDS011;2153;47.744;10.580;2022-09-21T12:54:27;15.53;;;1.80;;
4278;SDS011;2153;47.744;10.580;2022-09-21T12:57:03;19.13;;;1.40;;
4278;SDS011;2153;47.744;10.580;2022-09-21T12:59:35;13.30;;;1.50;;
4278;SDS011;2153;47.744;10.580;2022-09-21T13:02:14;12.33;;;1.30;;
4278;SDS011;2153;47.744;10.580;2022-09-21T13:04:49;13.47;;;1.10;;
4278;SDS011;2153;47.744;10.580;2022-09-21T13:10:42;30.30;;;1.40;;
4278;SDS011;2153;47.744;10.580;2022-09-21T13:13:16;15.37;;;2.20;;
4278;SDS011;2153;47.744;10.580;2022-09-21T13:15:48;14.57;;;1.30;;
4278;SDS011;2153;47.744;10.580;2022-09-21T13:18:19;14.47;;;1.60;;
4278;SDS011;2153;47.744;10.580;2022-09-21T13:20:49;13.70;;;1.20;;
4278;SDS011;2153;47.744;10.580;2022-09-21T13:23:19;11.63;;;1.27;;
4278;SDS011;2153;47.744;10.580;2022-09-21T13:25:49;12.83;;;1.13;;
4278;SDS011;2153;47.744;10.580;2022-09-21T13:28:38;14.43;;;1.30;;
4278;SDS011;2153;47.744;10.580;2022-09-21T13:43:08;13.87;;;1.20;;
4278;SDS011;2153;47.744;10.580;2022-09-21T13:45:48;11.40;;;1.00;;
4278;SDS011;2153;47.744;10.580;2022-09-21T13:48:25;11.70;;;1.00;;
4278;SDS011;2153;47.744;10.580;2022-09-21T13:50:56;11.40;;;1.00;;
4278;SDS011;2153;47.744;10.580;2022-09-21T13:53:27;13.10;;;1.13;;
4278;SDS011;2153;47.744;10.580;2022-09-21T13:55:59;13.00;;;1.00;;
4278;SDS011;2153;47.744;10.580;2022-09-21T13:58:33;11.50;;;0.97;;
4278;SDS011;2153;47.744;10.580;2022-09-21T14:01:02;17.70;;;0.97;;
4278;SDS011;2153;47.744;10.580;2022-09-21T14:03:32;13.27;;;1.30;;
4278;SDS011;2153;47.744;10.580;2022-09-21T14:06:04;13.93;;;1.83;;
4278;SDS011;2153;47.744;10.580;2022-09-21T14:08:34;12.10;;;1.00;;
4278;SDS011;2153;47.744;10.580;2022-09-21T14:11:06;11.17;;;0.90;;
4278;SDS011;2153;47.744;10.580;2022-09-21T14:13:42;13.50;;;1.30;;
4278;SDS011;2153;47.744;10.580;2022-09-21T14:16:24;11.83;;;0.93;;
4278;SDS011;2153;47.744;10.580;2022-09-21T14:22:32;18.97;;;1.80;;
4278;SDS011;2153;47.744;10.580;2022-09-21T14:25:21;11.40;;;1.10;;
4278;SDS011;2153;47.744;10.580;2022-09-21T14:28:12;12.60;;;1.13;;
4278;SDS011;2153;47.744;10.580;2022-09-21T14:30:47;13.30;;;1.30;;
4278;SDS011;2153;47.744;10.580;2022-09-21T14:33:23;11.50;;;1.13;;
4278;SDS011;2153;47.744;10.580;2022-09-21T14:35:54;12.10;;;1.53;;
4278;SDS011;2153;47.744;10.580;2022-09-21T14:38:24;11.87;;;1.27;;
4278;SDS011;2153;47.744;10.580;2022-09-21T14:40:55;12.37;;;1.30;;
4278;SDS011;2153;47.744;10.580;2022-09-21T14:43:26;11.00;;;1.03;;
4278;SDS011;2153;47.744;10.580;2022-09-21T14:49:00;11.50;;;1.00;;
4278;SDS011;2153;47.744;10.580;2022-09-21T14:51:38;17.20;;;1.17;;
4278;SDS011;2153;47.744;10.580;2022-09-21T14:54:25;11.30;;;1.20;;
4278;SDS011;2153;47.744;10.580;2022-09-21T14:57:12;11.53;;;1.27;;
4278;SDS011;2153;47.744;10.580;2022-09-21T14:59:53;13.20;;;1.53;;
4278;SDS011;2153;47.744;10.580;2022-09-21T15:02:28;11.70;;;1.47;;
4278;SDS011;2153;47.744;10.580;2022-09-21T15:05:11;11.00;;;1.10;;
4278;SDS011;2153;47.744;10.580;2022-09-21T15:07:46;11.60;;;1.20;;
4278;SDS011;2153;47.744;10.580;2022-09-21T15:10:46;12.10;;;1.13;;
4278;SDS011;2153;47.744;10.580;2022-09-21T15:13:23;11.30;;;1.20;;
4278;SDS011;2153;47.744;10.580;2022-09-21T15:16:11;11.70;;;1.07;;
4278;SDS011;2153;47.744;10.580;2022-09-21T15:18:44;13.00;;;1.20;;
4278;SDS011;2153;47.744;10.580;2022-09-21T15:21:18;11.70;;;1.20;;
4278;SDS011;2153;47.744;10.580;2022-09-21T15:23:49;12.50;;;1.33;;
4278;SDS011;2153;47.744;10.580;2022-09-21T15:26:19;12.20;;;1.27;;
4278;SDS011;2153;47.744;10.580;2022-09-21T15:28:52;13.00;;;2.00;;
4278;SDS011;2153;47.744;10.580;2022-09-21T15:31:20;11.73;;;1.40;;
4278;SDS011;2153;47.744;10.580;2022-09-21T15:33:47;11.13;;;1.00;;
4278;SDS011;2153;47.744;10.580;2022-09-21T15:36:20;12.30;;;1.20;;
4278;SDS011;2153;47.744;10.580;2022-09-21T15:38:48;14.73;;;1.70;;
4278;SDS011;2153;47.744;10.580;2022-09-21T15:44:11;12.17;;;1.30;;
4278;SDS011;2153;47.744;10.580;2022-09-21T15:46:40;12.47;;;1.13;;
4278;SDS011;2153;47.744;10.580;2022-09-21T15:49:10;13.33;;;1.20;;